Time;durP1;ratioP1;P1;durP2;ratioP2;P2;SDS_P1;SDS_P2;PMS_P1;PMS_P2;Temp;Humidity;BMP_temperature;BMP_pressure;BME280_temperature;BME280_humidity;BME280_pressure;Samples;Min_cycle;Max_cycle;Signal;HPM_P1;HPM_P2
2021/09/25 00:01:49;;;;;;;5.33;3.37;;;10.50;99.90;10.20;97134.00;;;;5134985;27;20217;-67
2021/09/25 00:04:38;;;;;;;4.17;3.30;;;10.50;99.90;10.00;97129.00;;;;5141667;27;20208;-68
2021/09/25 00:07:26;;;;;;;3.90;2.97;;;10.50;99.90;9.90;97132.00;;;;5139775;27;20647;-68
2021/09/25 00:10:16;;;;;;;2.77;2.57;;;10.40;99.90;9.90;97135.00;;;;5139065;27;20205;-67
2021/09/25 00:13:06;;;;;;;4.40;3.03;;;10.30;99.90;9.90;97132.00;;;;5135991;27;20198;-67
2021/09/25 00:15:55;;;;;;;10.80;3.50;;;10.20;99.90;9.80;97139.00;;;;5140046;27;20210;-66
2021/09/25 00:18:45;;;;;;;3.27;2.97;;;10.20;99.90;9.80;97125.00;;;;5134979;27;20232;-67
2021/09/25 00:21:34;;;;;;;4.97;3.50;;;10.20;99.90;9.80;97130.00;;;;5138977;27;20227;-67
2021/09/25 00:24:23;;;;;;;4.43;2.80;;;10.10;99.90;9.90;97138.00;;;;5136227;27;20228;-66
2021/09/25 00:27:12;;;;;;;6.23;3.73;;;10.10;99.90;9.50;97135.00;;;;5146666;27;20209;-68
2021/09/25 00:30:01;;;;;;;4.40;3.47;;;10.10;99.90;9.60;97141.00;;;;5146046;27;20662;-66
2021/09/25 00:32:51;;;;;;;4.37;3.17;;;10.00;99.90;9.50;97139.00;;;;5147478;27;20220;-67
2021/09/25 00:35:41;;;;;;;3.90;3.03;;;10.00;99.90;9.60;97133.00;;;;5142336;27;20209;-68
2021/09/25 00:38:30;;;;;;;3.80;3.33;;;9.90;99.90;9.80;97127.00;;;;5150059;27;20212;-67
2021/09/25 00:41:20;;;;;;;4.43;2.90;;;10.00;99.90;9.90;97124.00;;;;5149856;27;20217;-66
2021/09/25 00:44:09;;;;;;;5.50;3.47;;;10.00;99.90;9.50;97121.00;;;;5150791;27;20678;-68
2021/09/25 00:46:58;;;;;;;5.77;3.90;;;10.00;99.90;9.60;97120.00;;;;5140146;27;20201;-67
2021/09/25 00:49:47;;;;;;;5.60;3.90;;;10.00;99.90;9.70;97121.00;;;;5150095;27;20201;-66
2021/09/25 00:52:38;;;;;;;3.83;3.53;;;9.90;99.90;9.70;97129.00;;;;5152049;27;20233;-68
2021/09/25 00:55:28;;;;;;;4.87;3.37;;;10.00;99.90;9.70;97130.00;;;;5141054;27;20198;-68
2021/09/25 00:58:19;;;;;;;3.87;3.30;;;10.00;99.90;9.80;97133.00;;;;5141260;27;20200;-68
2021/09/25 01:01:08;;;;;;;5.63;3.47;;;10.00;99.90;9.80;97136.00;;;;5137159;27;20225;-68
2021/09/25 01:03:57;;;;;;;4.30;3.47;;;10.00;99.90;9.60;97131.00;;;;5150773;27;20208;-68
2021/09/25 01:06:46;;;;;;;6.27;3.87;;;10.00;99.90;9.60;97135.00;;;;5152062;27;20201;-66
2021/09/25 01:09:36;;;;;;;6.23;3.43;;;9.90;99.90;9.50;97119.00;;;;5135408;27;20197;-68
2021/09/25 01:12:25;;;;;;;3.50;3.20;;;9.90;99.90;9.50;97128.00;;;;5150701;27;20220;-68
2021/09/25 01:15:16;;;;;;;7.13;4.67;;;9.90;99.90;9.50;97131.00;;;;5149775;27;20190;-67
2021/09/25 01:18:05;;;;;;;5.47;3.90;;;9.80;99.90;9.60;97124.00;;;;5147437;27;20202;-68
2021/09/25 01:20:54;;;;;;;4.60;3.13;;;9.80;99.90;9.30;97121.00;;;;5143784;27;20230;-68
2021/09/25 01:23:45;;;;;;;4.93;3.83;;;9.80;99.90;9.20;97128.00;;;;5136927;27;20202;-67
2021/09/25 01:26:34;;;;;;;7.40;3.57;;;9.70;99.90;9.30;97130.00;;;;5152115;27;20667;-68
2021/09/25 01:29:24;;;;;;;4.53;3.27;;;9.60;99.90;9.30;97136.00;;;;5139957;27;20201;-66
2021/09/25 01:32:13;;;;;;;5.23;3.50;;;9.60;99.90;9.20;97126.00;;;;5152207;27;20907;-68
2021/09/25 01:35:02;;;;;;;8.40;4.20;;;9.50;99.90;9.10;97127.00;;;;5142120;27;20214;-68
2021/09/25 01:37:53;;;;;;;6.43;4.40;;;9.50;99.90;9.10;97126.00;;;;5142786;27;20190;-66
2021/09/25 01:40:44;;;;;;;6.20;4.30;;;9.50;99.90;9.10;97127.00;;;;5139752;27;20699;-68
2021/09/25 01:43:33;;;;;;;5.40;3.63;;;9.50;99.90;9.00;97125.00;;;;5150400;27;20204;-68
2021/09/25 01:46:22;;;;;;;4.77;3.53;;;9.40;99.90;9.00;97134.00;;;;5151547;27;20201;-68
2021/09/25 01:49:11;;;;;;;3.40;3.10;;;9.40;99.90;9.10;97144.00;;;;5151035;27;20577;-68
2021/09/25 01:52:00;;;;;;;6.10;3.60;;;9.40;99.90;8.90;97137.00;;;;5151258;27;20236;-67
2021/09/25 01:54:48;;;;;;;4.13;3.47;;;9.40;99.90;9.00;97138.00;;;;5148426;27;20217;-68
2021/09/25 01:57:39;;;;;;;3.80;2.87;;;9.30;99.90;9.00;97133.00;;;;5144037;27;20722;-66
2021/09/25 02:00:30;;;;;;;3.90;3.40;;;9.30;99.90;9.10;97130.00;;;;5130919;27;20225;-67
2021/09/25 02:03:18;;;;;;;4.70;3.77;;;9.30;99.90;9.10;97131.00;;;;5139136;27;20212;-68
2021/09/25 02:06:11;;;;;;;3.93;3.50;;;9.30;99.90;9.20;97130.00;;;;5145762;27;20193;-68
2021/09/25 02:09:00;;;;;;;4.57;3.90;;;9.30;99.90;9.20;97123.00;;;;5136724;27;20303;-68
2021/09/25 02:11:48;;;;;;;5.97;3.30;;;9.40;99.90;9.30;97134.00;;;;5148634;27;20217;-68
2021/09/25 02:14:39;;;;;;;3.70;3.10;;;9.40;99.90;9.20;97128.00;;;;5138741;27;20694;-68
2021/09/25 02:17:28;;;;;;;5.30;3.90;;;9.40;99.90;9.00;97133.00;;;;5149033;27;20201;-66
2021/09/25 02:20:17;;;;;;;5.47;3.77;;;9.40;99.90;9.00;97137.00;;;;5138629;27;20217;-68
2021/09/25 02:23:06;;;;;;;5.23;3.80;;;9.40;99.90;9.00;97135.00;;;;5133342;27;20201;-66
2021/09/25 02:25:55;;;;;;;4.63;3.77;;;9.30;99.90;8.80;97139.00;;;;5136694;27;20197;-68
2021/09/25 02:28:44;;;;;;;5.40;3.70;;;9.30;99.90;8.60;97144.00;;;;5148529;27;20425;-68
2021/09/25 02:31:35;;;;;;;4.77;3.80;;;9.20;99.90;8.60;97144.00;;;;5148322;27;20224;-68
2021/09/25 02:34:24;;;;;;;5.50;3.50;;;9.10;99.90;8.70;97152.00;;;;5145289;27;20563;-67
2021/09/25 02:37:13;;;;;;;4.43;3.67;;;9.10;99.90;8.40;97144.00;;;;5134566;27;20306;-66
2021/09/25 02:40:02;;;;;;;6.23;4.40;;;9.00;99.90;8.20;97152.00;;;;5146262;27;20224;-67
2021/09/25 02:42:51;;;;;;;4.70;3.33;;;9.00;99.90;8.30;97153.00;;;;5148529;27;20205;-68
2021/09/25 02:45:40;;;;;;;5.03;3.50;;;8.80;99.90;8.50;97154.00;;;;5136754;27;20197;-68
2021/09/25 02:48:30;;;;;;;4.40;3.70;;;8.80;99.90;8.60;97152.00;;;;5141764;27;20205;-67
2021/09/25 02:51:19;;;;;;;3.87;3.53;;;8.80;99.90;8.60;97157.00;;;;5132935;27;21266;-66
2021/09/25 02:54:08;;;;;;;7.13;4.00;;;8.80;99.90;8.70;97161.00;;;;5124658;27;20668;-68
2021/09/25 02:56:57;;;;;;;5.73;3.40;;;8.90;99.90;8.70;97168.00;;;;5118275;27;20210;-68
2021/09/25 02:59:46;;;;;;;3.37;3.07;;;8.90;99.90;8.40;97166.00;;;;5117771;27;20202;-68
2021/09/25 03:02:35;;;;;;;4.40;3.40;;;8.90;99.90;8.20;97167.00;;;;5124435;27;20682;-68
2021/09/25 03:05:25;;;;;;;6.20;3.63;;;8.80;99.90;8.20;97161.00;;;;5118595;27;20202;-66
2021/09/25 03:08:14;;;;;;;4.60;3.40;;;8.70;99.90;8.00;97169.00;;;;5118158;27;20584;-68
2021/09/25 03:11:03;;;;;;;4.83;3.67;;;8.70;99.90;8.00;97161.00;;;;5113074;27;20229;-68
2021/09/25 03:13:52;;;;;;;6.07;4.20;;;8.60;99.90;8.00;97176.00;;;;5124924;27;20463;-66
2021/09/25 03:16:40;;;;;;;5.33;4.17;;;8.60;99.90;8.20;97175.00;;;;5127115;27;20202;-68
2021/09/25 03:19:29;;;;;;;8.27;3.93;;;8.50;99.90;8.30;97175.00;;;;5116061;27;20204;-68
2021/09/25 03:22:20;;;;;;;5.37;3.77;;;8.60;99.90;8.40;97181.00;;;;5125414;27;20233;-67
2021/09/25 03:25:10;;;;;;;9.83;4.40;;;8.70;99.90;8.50;97178.00;;;;5113679;27;20207;-68
2021/09/25 03:27:59;;;;;;;5.07;3.63;;;8.70;99.90;8.50;97173.00;;;;5127441;27;20205;-67
2021/09/25 03:30:48;;;;;;;5.33;4.43;;;8.70;99.90;8.60;97188.00;;;;5125678;27;20217;-68
2021/09/25 03:33:37;;;;;;;4.17;3.23;;;8.80;99.90;8.70;97173.00;;;;5127978;27;20600;-66
2021/09/25 03:36:25;;;;;;;4.07;3.73;;;8.90;99.90;8.70;97186.00;;;;5120484;27;20202;-68
2021/09/25 03:39:16;;;;;;;4.60;3.80;;;8.90;99.90;8.60;97180.00;;;;5126461;27;20292;-68
2021/09/25 03:42:05;;;;;;;4.37;3.80;;;8.90;99.90;8.20;97189.00;;;;5127151;27;20221;-66
2021/09/25 03:44:54;;;;;;;4.03;3.63;;;8.80;99.90;8.10;97184.00;;;;5126021;27;20212;-68
2021/09/25 03:47:43;;;;;;;4.93;3.50;;;8.70;99.90;8.00;97180.00;;;;5126052;27;20205;-66
2021/09/25 03:50:33;;;;;;;4.50;4.10;;;8.60;99.90;7.70;97175.00;;;;5126948;27;20202;-65
2021/09/25 03:53:22;;;;;;;3.93;3.50;;;8.50;99.90;7.80;97172.00;;;;5146820;27;20193;-68
2021/09/25 03:56:12;;;;;;;7.23;3.43;;;8.40;99.90;7.80;97169.00;;;;5147325;27;20193;-68
2021/09/25 03:59:01;;;;;;;4.87;3.50;;;8.40;99.90;7.80;97180.00;;;;5128965;27;20198;-67
2021/09/25 04:01:50;;;;;;;9.03;4.43;;;8.30;99.90;7.80;97174.00;;;;5139208;27;20232;-68
2021/09/25 04:04:39;;;;;;;4.67;4.00;;;8.30;99.90;8.00;97177.00;;;;5139787;27;20285;-66
2021/09/25 04:07:28;;;;;;;4.70;4.30;;;8.30;99.90;8.00;97172.00;;;;5137750;27;20668;-67
2021/09/25 04:10:18;;;;;;;4.47;3.60;;;8.30;99.90;8.10;97174.00;;;;5143293;27;20209;-67
2021/09/25 04:13:08;;;;;;;9.23;5.10;;;8.60;99.90;8.20;97178.00;;;;5140815;27;20209;-67
2021/09/25 04:15:57;;;;;;;11.03;5.30;;;8.40;99.90;8.20;97183.00;;;;5137293;27;20253;-68
2021/09/25 04:18:46;;;;;;;6.93;5.03;;;8.40;99.90;8.00;97183.00;;;;5150844;27;20671;-68
2021/09/25 04:21:35;;;;;;;7.67;4.10;;;8.40;99.90;8.00;97196.00;;;;5142589;27;20233;-68
2021/09/25 04:24:24;;;;;;;5.47;3.87;;;8.40;99.90;8.00;97201.00;;;;5139798;27;20201;-66
2021/09/25 04:27:13;;;;;;;4.93;4.33;;;8.40;99.90;8.10;97195.00;;;;5150931;27;20578;-67
2021/09/25 04:30:05;;;;;;;4.07;3.67;;;8.40;99.90;8.20;97205.00;;;;5149462;27;20220;-68
2021/09/25 04:32:54;;;;;;;6.03;4.20;;;8.50;99.90;8.20;97207.00;;;;5151162;27;20206;-68
2021/09/25 04:35:43;;;;;;;4.63;4.07;;;8.50;99.90;8.10;97209.00;;;;5135322;27;20209;-68
2021/09/25 04:38:32;;;;;;;5.00;4.07;;;8.50;99.90;7.80;97213.00;;;;5148893;27;20201;-68
2021/09/25 04:41:21;;;;;;;5.77;4.07;;;8.40;99.90;7.50;97213.00;;;;5148956;27;20236;-68
2021/09/25 04:44:14;;;;;;;4.00;3.50;;;8.30;99.90;7.70;97214.00;;;;5151135;27;20193;-68
2021/09/25 04:47:05;;;;;;;4.87;3.97;;;8.20;99.90;7.80;97215.00;;;;5150023;27;20231;-68
2021/09/25 04:49:54;;;;;;;5.50;4.33;;;8.20;99.90;7.60;97211.00;;;;5149113;27;20192;-69
2021/09/25 04:52:43;;;;;;;4.37;3.67;;;8.10;99.90;7.50;97214.00;;;;5146322;27;20197;-66
2021/09/25 04:55:32;;;;;;;4.50;4.10;;;8.10;99.90;7.40;97215.00;;;;5136322;27;20198;-68
2021/09/25 04:58:27;;;;;;;4.33;3.93;;;8.00;99.90;7.70;97227.00;;;;5132585;27;20198;-68
2021/09/25 05:01:16;;;;;;;4.93;4.03;;;8.00;99.90;7.60;97215.00;;;;5136116;27;20225;-68
2021/09/25 05:04:07;;;;;;;7.23;3.77;;;8.00;99.90;7.30;97218.00;;;;5121373;27;20217;-67
2021/09/25 05:06:56;;;;;;;4.47;3.77;;;8.00;99.90;7.50;97225.00;;;;5127792;27;20209;-68
2021/09/25 05:09:45;;;;;;;4.60;3.93;;;8.00;99.90;7.70;97232.00;;;;5107354;27;20213;-67
2021/09/25 05:12:34;;;;;;;5.93;4.97;;;8.00;99.90;7.80;97226.00;;;;5119477;27;20217;-68
2021/09/25 05:15:23;;;;;;;7.93;4.60;;;8.00;99.90;7.90;97224.00;;;;5127942;27;20198;-68
2021/09/25 05:18:12;;;;;;;5.40;4.53;;;8.10;99.90;7.60;97227.00;;;;5129764;27;20202;-67
2021/09/25 05:21:02;;;;;;;4.17;3.57;;;8.10;99.90;7.40;97237.00;;;;5113028;27;20230;-68
2021/09/25 05:23:51;;;;;;;7.37;4.57;;;8.00;99.90;7.30;97234.00;;;;5131649;27;20743;-69
2021/09/25 05:26:41;;;;;;;5.40;4.37;;;7.90;99.90;7.50;97232.00;;;;5120589;27;20679;-67
2021/09/25 05:29:30;;;;;;;6.47;5.13;;;7.90;99.90;7.70;97235.00;;;;5150375;27;20193;-66
2021/09/25 05:32:19;;;;;;;4.93;4.20;;;8.00;99.90;7.90;97229.00;;;;5143459;27;20220;-67
2021/09/25 05:35:09;;;;;;;5.80;5.17;;;8.10;99.90;8.10;97234.00;;;;5137852;27;20206;-66
2021/09/25 05:37:59;;;;;;;5.03;4.17;;;8.20;99.90;8.10;97223.00;;;;5144728;27;20241;-66
2021/09/25 05:40:48;;;;;;;6.73;5.10;;;8.30;99.90;8.20;97236.00;;;;5145845;27;20231;-66
2021/09/25 05:43:37;;;;;;;4.83;4.33;;;8.40;99.90;8.40;97228.00;;;;5138584;27;20209;-68
2021/09/25 05:46:26;;;;;;;8.23;4.97;;;8.50;99.90;8.40;97235.00;;;;5150913;27;20220;-66
2021/09/25 05:49:15;;;;;;;5.10;4.33;;;8.60;99.90;8.20;97230.00;;;;5151055;27;20198;-68
2021/09/25 05:52:06;;;;;;;6.63;4.70;;;8.60;99.90;8.30;97228.00;;;;5151064;27;20236;-68
2021/09/25 05:54:56;;;;;;;6.17;3.77;;;8.60;99.90;8.30;97219.00;;;;5147519;27;20209;-67
2021/09/25 05:57:45;;;;;;;4.83;4.33;;;8.70;99.90;8.40;97211.00;;;;5149858;27;20575;-68
2021/09/25 06:00:34;;;;;;;8.77;4.90;;;8.70;99.90;8.30;97216.00;;;;5136257;27;20664;-67
2021/09/25 06:03:24;;;;;;;10.53;4.60;;;8.70;99.90;8.30;97227.00;;;;5138135;27;20298;-67
2021/09/25 06:06:13;;;;;;;5.33;4.53;;;8.70;99.90;8.30;97230.00;;;;5140896;27;20193;-67
2021/09/25 06:09:02;;;;;;;5.37;4.77;;;8.80;99.90;8.50;97226.00;;;;5133388;27;20202;-66
2021/09/25 06:11:52;;;;;;;6.53;5.37;;;8.80;99.90;8.70;97224.00;;;;5139962;27;20209;-67
2021/09/25 06:14:42;;;;;;;7.00;4.90;;;8.70;99.90;8.80;97232.00;;;;5136355;27;20573;-65
2021/09/25 06:17:31;;;;;;;9.57;5.13;;;9.00;99.90;8.80;97230.00;;;;5143064;27;20685;-67
2021/09/25 06:20:19;;;;;;;6.37;5.20;;;9.00;99.90;9.00;97221.00;;;;5140401;27;20888;-66
2021/09/25 06:23:09;;;;;;;5.17;4.03;;;9.20;99.90;9.10;97225.00;;;;5134204;27;20220;-68
2021/09/25 06:25:58;;;;;;;6.10;5.17;;;9.20;99.90;9.20;97217.00;;;;5136791;27;20213;-67
2021/09/25 06:28:48;;;;;;;5.13;4.17;;;9.30;99.90;9.30;97220.00;;;;5142877;27;20206;-68
2021/09/25 06:31:37;;;;;;;7.70;5.37;;;9.40;99.90;9.50;97228.00;;;;5136782;27;20225;-67
2021/09/25 06:34:26;;;;;;;6.30;4.83;;;9.50;99.90;9.50;97214.00;;;;5113563;27;20291;-66
2021/09/25 06:37:15;;;;;;;4.97;3.93;;;9.70;99.90;9.60;97211.00;;;;5114959;27;20198;-68
2021/09/25 06:40:05;;;;;;;6.57;5.97;;;9.70;99.90;9.60;97214.00;;;;5115539;27;20633;-65
2021/09/25 06:42:54;;;;;;;10.93;4.57;;;9.80;99.90;9.90;97222.00;;;;5133220;27;20247;-65
2021/09/25 06:45:44;;;;;;;7.50;4.93;;;10.00;99.90;10.10;97221.00;;;;5130738;27;20198;-68
2021/09/25 06:48:33;;;;;;;7.63;5.13;;;10.10;99.90;10.20;97211.00;;;;5138714;27;20214;-66
2021/09/25 06:51:22;;;;;;;6.37;4.70;;;10.20;99.90;10.20;97230.00;;;;5135875;27;20221;-68
2021/09/25 06:54:11;;;;;;;6.53;4.87;;;10.30;99.90;10.40;97227.00;;;;5128772;27;20194;-68
2021/09/25 06:56:59;;;;;;;8.63;4.67;;;10.40;99.90;10.60;97225.00;;;;5128886;27;20574;-68
2021/09/25 06:59:48;;;;;;;8.30;4.87;;;10.60;99.90;10.70;97223.00;;;;5133220;27;20212;-66
2021/09/25 07:02:40;;;;;;;9.70;4.60;;;10.70;99.90;11.00;97223.00;;;;5130201;27;20723;-67
2021/09/25 07:05:29;;;;;;;4.87;4.10;;;10.90;99.90;11.20;97225.00;;;;5133528;27;20200;-66
2021/09/25 07:08:19;;;;;;;6.40;4.13;;;11.10;99.90;11.20;97217.00;;;;5137545;27;20194;-68
2021/09/25 07:11:08;;;;;;;5.53;4.77;;;11.20;99.90;11.50;97230.00;;;;5143920;27;20220;-68
2021/09/25 07:13:57;;;;;;;5.30;4.80;;;11.40;99.90;11.60;97228.00;;;;5142486;27;20667;-67
2021/09/25 07:16:46;;;;;;;8.50;5.80;;;11.60;99.90;11.90;97222.00;;;;5106756;28;20206;-68
2021/09/25 07:19:36;;;;;;;10.53;5.60;;;11.70;99.90;12.10;97231.00;;;;5109598;27;20205;-66
2021/09/25 07:22:25;;;;;;;5.57;4.67;;;11.90;99.90;12.30;97232.00;;;;5108226;27;20697;-67
2021/09/25 07:25:14;;;;;;;8.17;5.47;;;12.10;99.90;12.50;97232.00;;;;5119924;27;20201;-65
2021/09/25 07:28:04;;;;;;;6.00;5.30;;;12.30;99.90;12.70;97231.00;;;;5109932;27;20205;-67
2021/09/25 07:30:53;;;;;;;7.63;5.47;;;12.50;99.90;12.80;97228.00;;;;5105619;28;20226;-67
2021/09/25 07:33:42;;;;;;;6.93;5.43;;;12.70;99.90;12.90;97233.00;;;;5129839;27;20213;-68
2021/09/25 07:36:32;;;;;;;10.00;5.27;;;12.80;99.90;12.90;97225.00;;;;5139016;27;20221;-67
2021/09/25 07:39:21;;;;;;;8.30;5.50;;;12.90;99.90;13.10;97229.00;;;;5140389;27;20223;-68
2021/09/25 07:42:10;;;;;;;10.77;5.33;;;13.00;99.90;13.30;97215.00;;;;5127015;27;20217;-68
2021/09/25 07:44:59;;;;;;;7.37;5.13;;;13.20;99.90;13.60;97225.00;;;;5129027;27;20213;-67
2021/09/25 07:47:48;;;;;;;7.63;5.27;;;13.40;99.90;13.70;97223.00;;;;5139874;27;20816;-68
2021/09/25 07:50:37;;;;;;;5.90;5.30;;;13.50;99.90;13.80;97230.00;;;;5133933;27;20243;-68
2021/09/25 07:53:27;;;;;;;7.17;5.10;;;13.70;99.90;14.10;97216.00;;;;5128628;27;20202;-66
2021/09/25 07:56:17;;;;;;;6.80;5.07;;;13.80;99.90;14.40;97217.00;;;;5135714;27;20597;-69
2021/09/25 07:59:06;;;;;;;8.30;5.30;;;14.00;99.90;14.60;97227.00;;;;5136666;27;20193;-67
2021/09/25 08:01:55;;;;;;;5.80;4.63;;;14.20;99.90;14.80;97221.00;;;;5143037;27;20704;-67
2021/09/25 08:04:44;;;;;;;7.00;4.97;;;14.90;99.90;14.80;97226.00;;;;5136096;27;20202;-65
2021/09/25 08:07:33;;;;;;;10.80;5.50;;;14.60;99.90;14.90;97229.00;;;;5142047;27;20814;-68
2021/09/25 08:10:23;;;;;;;7.80;5.10;;;14.80;99.90;15.20;97217.00;;;;5139328;27;20205;-67
2021/09/25 08:13:12;;;;;;;11.90;5.87;;;14.90;99.90;15.40;97224.00;;;;5137048;27;20205;-68
2021/09/25 08:16:07;;;;;;;10.97;5.60;;;15.10;99.90;15.70;97225.00;;;;5133605;27;20211;-67
2021/09/25 08:18:57;;;;;;;7.33;4.63;;;15.30;99.90;15.90;97222.00;;;;5148613;27;20739;-67
2021/09/25 08:21:45;;;;;;;6.67;5.00;;;15.50;99.90;16.00;97225.00;;;;5147791;27;20598;-67
2021/09/25 08:24:34;;;;;;;5.80;5.13;;;15.70;99.90;16.40;97223.00;;;;5135326;27;20236;-68
2021/09/25 08:27:25;;;;;;;9.33;5.23;;;15.90;99.90;16.90;97220.00;;;;5136351;27;20205;-68
2021/09/25 08:30:15;;;;;;;7.27;4.90;;;16.20;99.90;17.10;97229.00;;;;5135829;27;20197;-68
2021/09/25 08:33:04;;;;;;;5.30;4.80;;;16.50;99.90;17.30;97228.00;;;;5137166;27;20202;-66
2021/09/25 08:35:53;;;;;;;9.43;5.07;;;16.70;99.90;17.70;97224.00;;;;5133923;27;20229;-68
2021/09/25 08:38:41;;;;;;;6.47;4.93;;;17.00;99.90;17.90;97226.00;;;;5135197;27;20221;-66
2021/09/25 08:41:33;;;;;;;7.97;4.73;;;17.20;99.90;18.20;97223.00;;;;5135724;27;20218;-68
2021/09/25 08:44:23;;;;;;;6.47;4.97;;;17.50;99.90;18.50;97227.00;;;;5136745;27;20273;-68
2021/09/25 08:47:12;;;;;;;5.67;4.77;;;17.70;99.90;18.70;97215.00;;;;5137363;27;20202;-67
2021/09/25 08:50:02;;;;;;;6.13;4.43;;;18.00;99.90;18.90;97216.00;;;;5139407;27;20205;-68
2021/09/25 08:52:51;;;;;;;6.00;4.20;;;18.20;99.90;19.00;97227.00;;;;5142549;27;20204;-67
2021/09/25 08:55:40;;;;;;;4.77;4.13;;;18.30;99.90;19.10;97235.00;;;;5146269;27;20565;-67
2021/09/25 08:58:29;;;;;;;5.57;3.40;;;18.50;99.90;19.10;97226.00;;;;5134615;27;20194;-67
2021/09/25 09:01:21;;;;;;;5.40;4.00;;;18.70;99.90;19.50;97222.00;;;;5138958;27;20225;-68
2021/09/25 09:04:10;;;;;;;6.87;3.90;;;18.90;99.90;19.60;97220.00;;;;5142675;27;20313;-68
2021/09/25 09:07:00;;;;;;;4.13;3.73;;;19.00;99.90;19.90;97225.00;;;;5141626;27;20283;-67
2021/09/25 09:09:49;;;;;;;4.93;3.97;;;19.20;99.90;20.10;97206.00;;;;5138951;27;20217;-66
2021/09/25 09:12:38;;;;;;;3.60;3.30;;;19.40;99.90;20.20;97207.00;;;;5136797;27;20212;-67
2021/09/25 09:15:32;;;;;;;7.30;3.70;;;19.50;99.90;20.40;97209.00;;;;5144976;27;20571;-68
2021/09/25 09:18:24;;;;;;;5.00;3.93;;;19.70;99.90;20.70;97216.00;;;;5142662;27;20197;-66
2021/09/25 09:21:15;;;;;;;5.70;4.00;;;19.90;99.90;20.70;97208.00;;;;5150304;27;20291;-67
2021/09/25 09:24:07;;;;;;;6.07;3.63;;;20.10;99.90;20.90;97201.00;;;;5140532;27;20225;-68
2021/09/25 09:26:57;;;;;;;3.97;3.43;;;20.20;99.90;21.20;97200.00;;;;5135742;27;20271;-68
2021/09/25 09:29:46;;;;;;;4.10;3.70;;;20.40;99.90;21.60;97191.00;;;;5134315;27;20209;-69
2021/09/25 09:32:39;;;;;;;6.90;3.70;;;20.60;99.90;21.50;97194.00;;;;5138711;27;20217;-68
2021/09/25 09:35:31;;;;;;;3.67;3.27;;;20.80;99.90;21.50;97204.00;;;;5139696;27;20202;-68
2021/09/25 09:38:23;;;;;;;6.70;3.87;;;21.00;99.90;21.80;97202.00;;;;5139984;27;20209;-68
2021/09/25 09:41:12;;;;;;;3.70;3.37;;;20.20;99.90;21.70;97200.00;;;;5148620;27;20244;-67
2021/09/25 09:44:04;;;;;;;3.93;3.60;;;21.30;99.90;21.70;97204.00;;;;5140425;27;20229;-66
2021/09/25 09:46:57;;;;;;;4.00;3.60;;;21.40;99.90;21.90;97189.00;;;;5151760;27;20201;-68
2021/09/25 09:49:46;;;;;;;3.47;3.17;;;21.50;99.90;22.40;97188.00;;;;5150758;27;20216;-66
2021/09/25 09:52:36;;;;;;;4.17;3.73;;;21.60;99.90;22.50;97196.00;;;;5131873;27;20244;-67
2021/09/25 09:55:26;;;;;;;4.33;3.07;;;21.80;99.90;21.70;97181.00;;;;5140516;27;20204;-67
2021/09/25 09:58:15;;;;;;;3.97;3.60;;;21.90;99.90;21.80;97177.00;;;;5137769;27;20282;-68
2021/09/25 10:01:04;;;;;;;4.70;3.67;;;23.10;99.90;21.60;97167.00;;;;5132899;27;20606;-68
2021/09/25 10:03:53;;;;;;;3.80;3.40;;;21.80;99.90;22.30;97177.00;;;;5141341;27;20213;-68
2021/09/25 10:06:42;;;;;;;4.03;3.63;;;21.90;99.90;23.10;97165.00;;;;5135942;27;20198;-66
2021/09/25 10:09:35;;;;;;;3.77;3.37;;;22.10;99.90;23.00;97169.00;;;;5138633;27;20198;-68
2021/09/25 10:12:24;;;;;;;3.53;3.23;;;22.30;99.90;22.20;97161.00;;;;5144273;27;20213;-67
2021/09/25 10:15:14;;;;;;;3.53;3.20;;;22.30;99.90;23.20;97163.00;;;;5141908;27;20198;-68
2021/09/25 10:18:03;;;;;;;4.10;3.70;;;22.40;99.90;23.30;97164.00;;;;5137605;27;20584;-68
2021/09/25 10:20:53;;;;;;;4.77;3.63;;;22.60;99.90;22.70;97157.00;;;;5136670;27;20229;-66
2021/09/25 10:23:49;;;;;;;5.80;3.67;;;22.70;99.50;22.30;97160.00;;;;5146988;27;20577;-67
2021/09/25 10:26:45;;;;;;;5.30;3.77;;;22.50;98.30;23.30;97160.00;;;;5142274;27;20207;-68
2021/09/25 10:29:33;;;;;;;3.47;3.17;;;22.70;99.50;23.90;97166.00;;;;5148891;27;20205;-67
2021/09/25 10:32:25;;;;;;;4.37;3.20;;;22.90;99.00;24.60;97155.00;;;;5149400;27;20231;-66
2021/09/25 10:35:17;;;;;;;3.93;2.80;;;23.30;99.20;24.80;97156.00;;;;5130888;27;20198;-69
2021/09/25 10:38:06;;;;;;;7.47;4.20;;;23.70;98.30;25.20;97148.00;;;;5126567;27;20198;-68
2021/09/25 10:41:17;;;;;;;5.07;4.20;;;24.10;97.50;25.10;97159.00;;;;5140262;27;20357;-67
2021/09/25 10:44:24;;;;;;;4.60;4.17;;;24.60;94.80;24.60;97148.00;;;;5149301;27;20617;-68
2021/09/25 10:47:17;;;;;;;5.03;3.93;;;25.20;92.10;26.00;97142.00;;;;5148601;27;20197;-66
2021/09/25 10:50:14;;;;;;;7.77;3.67;;;25.30;91.60;26.70;97145.00;;;;5146587;27;20209;-66
2021/09/25 10:53:12;;;;;;;6.40;3.97;;;25.60;92.60;27.10;97143.00;;;;5144161;27;20207;-67
2021/09/25 10:56:06;;;;;;;4.33;3.23;;;26.00;92.20;27.30;97141.00;;;;5148617;27;20729;-65
2021/09/25 10:58:56;;;;;;;3.10;2.80;;;26.20;90.60;27.50;97142.00;;;;5145484;27;20213;-66
2021/09/25 11:01:54;;;;;;;3.40;3.10;;;26.70;87.70;27.50;97142.00;;;;5129809;27;20234;-65
2021/09/25 11:04:43;;;;;;;5.30;4.32;;;27.00;83.70;27.30;97135.00;;;;5139778;27;20227;-69
2021/09/25 11:07:37;;;;;;;3.95;3.30;;;27.10;79.30;27.40;97134.00;;;;5138684;27;20199;-65
2021/09/25 11:11:09;;;;;;;4.57;3.72;;;27.20;79.70;27.80;97132.00;;;;5134708;27;20204;-65
2021/09/25 11:14:30;;;;;;;4.05;3.45;;;27.30;76.90;27.40;97126.00;;;;5133148;27;20215;-66
2021/09/25 11:17:28;;;;;;;4.53;3.00;;;27.50;75.00;28.10;97133.00;;;;5080279;28;20601;-66
2021/09/25 11:20:20;;;;;;;3.35;2.97;;;27.60;77.10;28.60;97129.00;;;;5146842;27;20205;-68
2021/09/25 11:23:09;;;;;;;3.97;3.53;;;27.80;77.00;28.70;97126.00;;;;5148453;27;20206;-66
2021/09/25 11:25:58;;;;;;;4.65;3.40;;;28.00;73.80;29.20;97118.00;;;;5147313;27;20224;-67
2021/09/25 11:28:46;;;;;;;5.13;3.58;;;28.20;73.00;29.30;97113.00;;;;5133813;27;20211;-67
2021/09/25 11:31:35;;;;;;;3.90;3.40;;;28.60;71.60;29.70;97107.00;;;;5147237;27;20244;-66
2021/09/25 11:34:27;;;;;;;5.22;3.97;;;28.80;71.10;29.30;97112.00;;;;5136371;27;20198;-65
2021/09/25 11:37:16;;;;;;;5.05;3.25;;;29.00;67.40;27.30;97103.00;;;;5137058;27;20206;-67
2021/09/25 11:40:07;;;;;;;4.60;3.20;;;29.10;63.40;26.50;97096.00;;;;5140245;27;20189;-65
2021/09/25 11:43:02;;;;;;;4.50;3.40;;;28.70;62.50;27.50;97100.00;;;;5144000;27;20675;-66
2021/09/25 11:45:54;;;;;;;3.90;2.97;;;28.20;62.70;29.00;97090.00;;;;5124899;27;20232;-65
2021/09/25 11:48:43;;;;;;;3.83;3.33;;;28.20;65.00;29.30;97091.00;;;;5134606;27;20862;-66
2021/09/25 11:51:33;;;;;;;5.82;3.15;;;28.50;65.60;29.20;97097.00;;;;5139140;27;20233;-67
2021/09/25 11:54:22;;;;;;;6.82;3.70;;;28.70;65.10;29.10;97090.00;;;;5146845;27;20215;-65
2021/09/25 11:57:17;;;;;;;4.97;3.67;;;29.00;62.50;30.00;97091.00;;;;5148689;27;20694;-67
2021/09/25 12:00:23;;;;;;;4.50;4.10;;;29.20;62.70;30.40;97086.00;;;;5139739;27;20469;-66
2021/09/25 12:03:13;;;;;;;6.40;3.90;;;29.50;61.60;30.90;97080.00;;;;5134241;27;20748;-65
2021/09/25 12:06:04;;;;;;;11.77;4.63;;;29.70;61.40;30.90;97085.00;;;;5144554;27;20212;-65
2021/09/25 12:08:55;;;;;;;4.90;3.60;;;29.80;59.00;31.00;97082.00;;;;5133772;27;20609;-65
2021/09/25 12:11:43;;;;;;;6.10;3.80;;;30.10;59.50;30.60;97074.00;;;;5147465;27;20225;-67
2021/09/25 12:14:34;;;;;;;6.53;3.95;;;30.00;59.00;30.80;97074.00;;;;5134951;27;20205;-68
2021/09/25 12:17:22;;;;;;;7.30;3.92;;;30.00;59.40;30.30;97076.00;;;;5148501;27;20223;-66
2021/09/25 12:20:17;;;;;;;6.90;3.75;;;30.30;58.60;30.50;97080.00;;;;5145620;27;20220;-69
2021/09/25 12:23:08;;;;;;;6.55;4.28;;;30.30;58.90;30.90;97073.00;;;;5147701;27;20223;-66
2021/09/25 12:25:59;;;;;;;4.93;3.33;;;30.20;60.10;31.20;97063.00;;;;5141357;27;20224;-66
2021/09/25 12:28:51;;;;;;;4.35;3.80;;;30.20;59.40;31.90;97055.00;;;;5142940;27;20199;-67
2021/09/25 12:31:40;;;;;;;5.97;3.90;;;30.40;59.00;31.60;97054.00;;;;5140419;27;20704;-67
2021/09/25 12:34:30;;;;;;;3.97;3.58;;;30.70;58.00;31.40;97055.00;;;;5138678;27;20200;-67
2021/09/25 12:37:19;;;;;;;5.68;4.45;;;30.80;57.30;30.60;97054.00;;;;5131912;27;20559;-66
2021/09/25 12:40:10;;;;;;;4.65;3.63;;;30.70;57.20;31.00;97048.00;;;;5135318;27;20200;-66
2021/09/25 12:43:00;;;;;;;4.65;3.90;;;30.80;56.10;31.60;97045.00;;;;5153420;27;20196;-66
2021/09/25 12:46:13;;;;;;;11.63;4.28;;;30.90;57.10;32.00;97049.00;;;;5128552;27;20236;-66